Wednesday, October 18, 2017, 6:10 PM EDT
Back to Local

KYNG, Youngstown-warren Reg Airprt

Location: Vienna, OH, United States Lat: 41.25
Local Time: 6:10 PM EDT (22:10 GMT) Lon: -80.667
Time Zone: US/Eastern Elev: 1197 ft

Show me the last for .
Show Decoded

2017-10-18 17:51 METAR KYNG 182151Z 18005KT 10SM FEW250 19/05 A3021 RMK AO2 SLP230 T01940050 =
2017-10-18 16:51 METAR KYNG 182051Z 16008KT 10SM FEW250 21/06 A3021 RMK AO2 SLP231 T02060056
                 56019 =
2017-10-18 15:51 METAR KYNG 181951Z 17010KT 10SM FEW250 21/05 A3023 RMK AO2 SLP235 T02060050 =
2017-10-18 14:51 METAR KYNG 181851Z 17008G16KT 10SM FEW250 20/05 A3025 RMK AO2 SLP243 T02000050 =
2017-10-18 13:51 METAR KYNG 181751Z 17009KT 10SM CLR 19/05 A3027 RMK AO2 SLP251 T01890050 10194
                 20044 58019 =
2017-10-18 12:51 METAR KYNG 181651Z 18008KT 140V210 10SM CLR 19/06 A3031 RMK AO2 SLP262 T01890061
                 =
2017-10-18 11:51 METAR KYNG 181551Z 19008KT 10SM CLR 17/06 A3033 RMK AO2 SLP271 T01670056 =
2017-10-18 10:51 METAR KYNG 181451Z 19004KT 10SM CLR 15/06 A3033 RMK AO2 SLP273 T01500056 50005 =
2017-10-18 09:51 METAR KYNG 181351Z 20004KT 10SM CLR 12/06 A3034 RMK AO2 SLP276 T01220056 =
2017-10-18 08:51 METAR KYNG 181251Z 18005KT 10SM CLR 09/04 A3033 RMK AO2 SLP276 T00940044 =
2017-10-18 07:51 METAR KYNG 181151Z 16003KT 10SM FEW250 05/03 A3032 RMK AO2 SLP271 T00500028
                 10100 20039 51012 =
2017-10-18 06:51 METAR KYNG 181051Z 00000KT 10SM FEW250 07/03 A3031 RMK AO2 SLP269 T00670033 =
2017-10-18 05:51 METAR KYNG 180951Z 00000KT 10SM SCT250 07/03 A3030 RMK AO2 SLP262 T00670033 =
2017-10-18 04:51 METAR KYNG 180851Z 20005KT 10SM SCT250 08/04 A3028 RMK AO2 SLP256 T00780039
                 51001 =
2017-10-18 03:51 METAR KYNG 180751Z 19004KT 10SM FEW250 09/04 A3028 RMK AO2 SLP254 T00890039 =
2017-10-18 02:51 METAR KYNG 180651Z 18003KT 10SM FEW250 06/03 A3028 RMK AO2 SLP258 T00610033 =
2017-10-18 01:51 METAR KYNG 180551Z 20004KT 10SM SCT250 09/04 A3028 RMK AO2 SLP254 T00940039
                 10128 20094 53006 =
2017-10-18 00:51 METAR KYNG 180451Z 21005KT 10SM SCT250 11/04 A3027 RMK AO2 SLP251 T01060039
                 401780011 =
2017-10-17 23:51 METAR KYNG 180351Z 21006KT 10SM FEW250 11/04 A3027 RMK AO2 SLP252 T01060039 =
2017-10-17 22:51 METAR KYNG 180251Z 20006KT 10SM FEW250 11/04 A3026 RMK AO2 SLP250 T01060039
                 53012 =
2017-10-17 21:51 METAR KYNG 180151Z 19005KT 10SM CLR 11/04 A3025 RMK AO2 SLP247 T01110039 =
2017-10-17 20:51 METAR KYNG 180051Z 20006KT 10SM CLR 12/04 A3024 RMK AO2 SLP243 T01170039 =
2017-10-17 19:51 METAR KYNG 172351Z 19006KT 10SM FEW250 13/04 A3023 RMK AO2 SLP241 T01280039
                 10178 20128 53002 =
2017-10-17 18:51 METAR KYNG 172251Z 20005KT 10SM FEW250 13/04 A3022 RMK AO2 SLP238 T01330039 =

Support USWX by starting your Amazon purchase here.